| time (UTC) | temp F | wind direction | speed knots | gust knots | rain 1hr in | rain 24hr in | rain mn in | humidity % | barometer mb |
| 20260906194404 | 100 | 208 | 4.3 | 6.1 | 0.00 | 0.00 | 0.00 | 28 | 1013.1 |
| 20260906193903 | 101 | 115 | 3.5 | 7.0 | 0.00 | 0.00 | 0.00 | 28 | 1013.1 |
| 20260906193402 | 101 | 86 | 2.6 | 7.8 | 0.00 | 0.00 | 0.00 | 28 | 1013.3 |
| 20260906191904 | 101 | 77 | 2.6 | 5.2 | 0.00 | 0.00 | 0.00 | 30 | 1013.5 |
| 20260906191403 | 101 | 273 | 3.5 | 5.2 | 0.00 | 0.00 | 0.00 | 29 | 1013.6 |
| 20260906190403 | 99 | 279 | 3.5 | 6.1 | 0.00 | 0.00 | 0.00 | 30 | 1013.8 |
| 20260906184902 | 101 | 59 | 4.3 | 6.1 | 0.00 | 0.00 | 0.00 | 30 | 1013.9 |
| 20260906184403 | 101 | 78 | 1.7 | 5.2 | 0.00 | 0.00 | 0.00 | 29 | 1013.9 |
| 20260906183902 | 102 | 164 | 2.6 | 5.2 | 0.00 | 0.00 | 0.00 | 29 | 1014.0 |
| 20260906183403 | 101 | 194 | 3.5 | 11.3 | 0.00 | 0.00 | 0.00 | 28 | 1014.1 |
| 20260906181903 | 103 | 342 | 2.6 | 6.1 | 0.00 | 0.00 | 0.00 | 31 | 1014.4 |
| 20260906181403 | 102 | 162 | 0.9 | 1.7 | 0.00 | 0.00 | 0.00 | 33 | 1014.6 |
| 20260906180903 | 100 | 72 | 2.6 | 4.3 | 0.00 | 0.00 | 0.00 | 33 | 1014.6 |
| 20260906180402 | 99 | 181 | 1.7 | 5.2 | 0.00 | 0.00 | 0.00 | 32 | 1014.7 |
| 20260906174903 | 96 | 50 | 2.6 | 5.2 | 0.00 | 0.00 | 0.00 | 36 | 1015.1 |
| 20260906173402 | 99 | 231 | 1.7 | 6.1 | 0.00 | 0.00 | 0.00 | 32 | 1015.3 |
| 20260906171902 | 98 | 181 | 4.3 | 6.1 | 0.00 | 0.00 | 0.00 | 32 | 1015.6 |
| 20260906171403 | 98 | 282 | 4.3 | 5.2 | 0.00 | 0.00 | 0.00 | 33 | 1015.7 |
| 20260906170902 | 98 | 44 | 1.7 | 5.2 | 0.00 | 0.00 | 0.00 | 36 | 1015.8 |
| 20260906170402 | 98 | 10 | 3.5 | 8.7 | 0.00 | 0.00 | 0.00 | 34 | 1015.9 |
| 20260906164903 | 100 | 192 | 1.7 | 6.1 | 0.00 | 0.00 | 0.00 | 30 | 1015.9 |
| 20260906164403 | 100 | 77 | 0.9 | 4.3 | 0.00 | 0.00 | 0.00 | 33 | 1015.9 |
| 20260906163403 | 96 | 37 | 0.9 | 5.2 | 0.00 | 0.00 | 0.00 | 36 | 1016.1 |
| 20260906161903 | 96 | 259 | 0.9 | 6.1 | 0.00 | 0.00 | 0.00 | 38 | 1016.2 |
| 20260906161403 | 96 | 255 | 2.6 | 7.0 | 0.00 | 0.00 | 0.00 | 36 | 1016.1 |
| 20260906160902 | 95 | 239 | 1.7 | 4.3 | 0.00 | 0.00 | 0.00 | 41 | 1016.1 |
| 20260906160403 | 94 | 175 | 3.5 | 7.8 | 0.00 | 0.00 | 0.00 | 37 | 1016.0 |
| 20260906154903 | 95 | 47 | 1.7 | 4.3 | 0.00 | 0.00 | 0.00 | 41 | 1016.0 |
| 20260906154403 | 94 | 241 | 2.6 | 5.2 | 0.00 | 0.00 | 0.00 | 38 | 1016.0 |
| 20260906153903 | 94 | 240 | 1.7 | 6.1 | 0.00 | 0.00 | 0.00 | 39 | 1015.9 |
| 20260906153403 | 94 | 225 | 4.3 | 7.0 | 0.00 | 0.00 | 0.00 | 39 | 1015.9 |
| 20260906151902 | 93 | 134 | 1.7 | 4.3 | 0.00 | 0.00 | 0.00 | 40 | 1015.8 |
| 20260906151403 | 93 | 1 | 1.7 | 5.2 | 0.00 | 0.00 | 0.00 | 43 | 1015.8 |
| 20260906150903 | 93 | 246 | 2.6 | 5.2 | 0.00 | 0.00 | 0.00 | 42 | 1015.7 |
| 20260906150403 | 92 | 285 | 1.7 | 5.2 | 0.00 | 0.00 | 0.00 | 42 | 1015.8 |
| 20260906144903 | 91 | 200 | 0.0 | 0.9 | 0.00 | 0.00 | 0.00 | 46 | 1015.7 |
| 20260906144403 | 90 | 203 | 0.9 | 0.9 | 0.00 | 0.00 | 0.00 | 48 | 1015.7 |
| 20260906143902 | 89 | 257 | 0.9 | 1.7 | 0.00 | 0.00 | 0.00 | 47 | 1015.8 |
| 20260906143403 | 88 | 232 | 0.9 | 4.3 | 0.00 | 0.00 | 0.00 | 49 | 1015.7 |
| 20260906141902 | 86 | 180 | 0.0 | 1.7 | 0.00 | 0.00 | 0.00 | 52 | 1015.8 |
| 20260906141403 | 85 | 169 | 1.7 | 1.7 | 0.00 | 0.00 | 0.00 | 54 | 1015.7 |
| 20260906140903 | 85 | 252 | 0.0 | 1.7 | 0.00 | 0.00 | 0.00 | 54 | 1015.7 |
| 20260906140402 | 84 | 236 | 1.7 | 5.2 | 0.00 | 0.00 | 0.00 | 56 | 1015.7 |
| 20260906134903 | 81 | 246 | 1.7 | 1.7 | 0.00 | 0.00 | 0.00 | 64 | 1015.7 |
| 20260906134403 | 80 | 180 | 0.9 | 1.7 | 0.00 | 0.00 | 0.00 | 66 | 1015.7 |
| 20260906133903 | 79 | 180 | 0.0 | 0.0 | 0.00 | 0.00 | 0.00 | 68 | 1015.7 |
| 20260906133403 | 78 | 180 | 0.0 | 0.0 | 0.00 | 0.00 | 0.00 | 72 | 1015.6 |
| 20260906131403 | 75 | 180 | 0.0 | 0.0 | 0.00 | 0.00 | 0.00 | 79 | 1015.4 |
| 20260906130902 | 74 | 180 | 0.0 | 0.0 | 0.00 | 0.00 | 0.00 | 79 | 1015.3 |
| 20260906130402 | 74 | 180 | 0.0 | 0.0 | 0.00 | 0.00 | 0.00 | 79 | 1015.3 |
| 20260906124903 | 73 | 180 | 0.0 | 0.0 | 0.00 | 0.00 | 0.00 | 78 | 1015.0 |
| 20260906124403 | 73 | 180 | 0.0 | 0.0 | 0.00 | 0.00 | 0.00 | 78 | 1014.9 |
| 20260906123902 | 73 | 180 | 0.0 | 0.0 | 0.00 | 0.00 | 0.00 | 77 | 1014.8 |
| 20260906121902 | 73 | 180 | 0.0 | 0.0 | 0.00 | 0.00 | 0.00 | 77 | 1014.5 |
| 20260906121403 | 73 | 180 | 0.0 | 0.0 | 0.00 | 0.00 | 0.00 | 76 | 1014.4 |
| 20260906120903 | 73 | 180 | 0.0 | 0.0 | 0.00 | 0.00 | 0.00 | 76 | 1014.3 |
| 20260906120403 | 73 | 180 | 0.0 | 0.0 | 0.00 | 0.00 | 0.00 | 76 | 1014.3 |
| 20260906114903 | 73 | 180 | 0.0 | 0.9 | 0.00 | 0.00 | 0.00 | 75 | 1014.3 |
| 20260906113904 | 74 | 180 | 0.0 | 0.0 | 0.00 | 0.00 | 0.00 | 75 | 1014.1 |
| 20260906111903 | 74 | 180 | 0.0 | 0.0 | 0.00 | 0.00 | 0.00 | 74 | 1014.0 |
| 20260906111404 | 74 | 180 | 0.0 | 0.0 | 0.00 | 0.00 | 0.00 | 73 | 1013.9 |
| 20260906110903 | 74 | 180 | 0.0 | 0.0 | 0.00 | 0.00 | 0.00 | 73 | 1013.9 |
| 20260906104903 | 74 | 180 | 0.0 | 0.0 | 0.00 | 0.00 | 0.00 | 72 | 1013.9 |
| 20260906104403 | 75 | 180 | 0.0 | 0.0 | 0.00 | 0.00 | 0.00 | 72 | 1013.8 |
| 20260906103903 | 75 | 180 | 0.0 | 0.9 | 0.00 | 0.00 | 0.00 | 71 | 1013.8 |
| 20260906101903 | 75 | 180 | 0.0 | 0.0 | 0.00 | 0.00 | 0.00 | 71 | 1013.9 |
| 20260906101404 | 75 | 180 | 0.0 | 0.9 | 0.00 | 0.00 | 0.00 | 70 | 1013.9 |
| 20260906100903 | 75 | 180 | 0.0 | 0.9 | 0.00 | 0.00 | 0.00 | 70 | 1013.8 |
| 20260906100404 | 76 | 180 | 0.0 | 0.9 | 0.00 | 0.00 | 0.00 | 71 | 1013.8 |
| 20260906094903 | 76 | 180 | 0.0 | 0.0 | 0.00 | 0.00 | 0.00 | 70 | 1013.8 |
| 20260906093403 | 76 | 180 | 0.0 | 0.0 | 0.00 | 0.00 | 0.00 | 69 | 1013.8 |
| 20260906091903 | 76 | 180 | 0.0 | 0.0 | 0.00 | 0.00 | 0.00 | 67 | 1013.6 |
| 20260906091404 | 77 | 180 | 0.0 | 0.0 | 0.00 | 0.00 | 0.00 | 67 | 1013.7 |
| 20260906090903 | 77 | 180 | 0.0 | 0.0 | 0.00 | 0.00 | 0.00 | 66 | 1013.6 |
| 20260906090403 | 77 | 180 | 0.0 | 0.0 | 0.00 | 0.00 | 0.00 | 66 | 1013.6 |
| 20260906084903 | 77 | 180 | 0.0 | 0.0 | 0.00 | 0.00 | 0.00 | 66 | 1013.6 |
| 20260906084403 | 77 | 180 | 0.0 | 0.0 | 0.00 | 0.00 | 0.00 | 65 | 1013.6 |
| 20260906083903 | 77 | 180 | 0.0 | 0.0 | 0.00 | 0.00 | 0.00 | 65 | 1013.5 |
| 20260906083403 | 78 | 180 | 0.0 | 0.0 | 0.00 | 0.00 | 0.00 | 65 | 1013.4 |
| 20260906081404 | 78 | 180 | 0.0 | 0.0 | 0.00 | 0.00 | 0.00 | 64 | 1013.5 |
| 20260906080903 | 78 | 180 | 0.0 | 0.0 | 0.00 | 0.00 | 0.00 | 63 | 1013.5 |
| 20260906074404 | 79 | 180 | 0.0 | 0.0 | 0.00 | 0.00 | 0.00 | 62 | 1013.5 |
| 20260906073903 | 79 | 180 | 0.0 | 0.0 | 0.00 | 0.00 | 0.00 | 61 | 1013.5 |
| 20260906073403 | 79 | 180 | 0.0 | 0.9 | 0.00 | 0.00 | 0.00 | 60 | 1013.4 |
| 20260906071903 | 80 | 180 | 0.0 | 0.0 | 0.00 | 0.00 | 0.00 | 60 | 1013.3 |
| 20260906071404 | 80 | 180 | 0.0 | 0.9 | 0.00 | 0.00 | 0.00 | 60 | 1013.3 |
| 20260906070903 | 80 | 180 | 0.0 | 0.9 | 0.00 | 0.00 | 0.00 | 59 | 1013.3 |
| 20260906070403 | 80 | 180 | 0.0 | 0.0 | 0.00 | 0.00 | 0.00 | 59 | 1013.4 |
| 20260906064903 | 80 | 179 | 0.0 | 0.0 | 0.00 | 0.00 | 0.00 | 58 | 1013.4 |
| 20260906064404 | 80 | 179 | 0.0 | 0.0 | 0.00 | 0.00 | 0.00 | 58 | 1013.4 |
| 20260906063903 | 81 | 179 | 0.0 | 0.0 | 0.00 | 0.00 | 0.00 | 57 | 1013.4 |
| 20260906061404 | 81 | 179 | 0.0 | 0.9 | 0.00 | 0.00 | 0.00 | 56 | 1013.4 |
| 20260906060904 | 82 | 179 | 0.0 | 0.0 | 0.00 | 0.00 | 0.00 | 56 | 1013.4 |
| 20260906054904 | 82 | 179 | 0.0 | 0.0 | 0.00 | 0.00 | 0.00 | 54 | 1013.4 |
| 20260906054404 | 82 | 179 | 0.0 | 0.0 | 0.00 | 0.00 | 0.00 | 54 | 1013.5 |
| 20260906053904 | 83 | 179 | 0.0 | 0.0 | 0.00 | 0.00 | 0.00 | 53 | 1013.4 |
| 20260906053403 | 83 | 179 | 0.0 | 0.0 | 0.00 | 0.00 | 0.00 | 53 | 1013.4 |
| 20260906051904 | 84 | 182 | 0.0 | 0.9 | 0.00 | 0.00 | 0.00 | 52 | 1013.5 |
| 20260906051404 | 84 | 184 | 0.0 | 0.9 | 0.00 | 0.00 | 0.00 | 52 | 1013.5 |
| 20260906050404 | 84 | 132 | 0.0 | 0.9 | 0.00 | 0.00 | 0.00 | 50 | 1013.4 |
| 20260906044904 | 85 | 132 | 0.0 | 0.9 | 0.00 | 0.00 | 0.00 | 49 | 1013.3 |
| 20260906043904 | 85 | 132 | 0.0 | 0.9 | 0.00 | 0.00 | 0.00 | 48 | 1013.3 |
| 20260906043403 | 86 | 140 | 0.0 | 1.7 | 0.00 | 0.00 | 0.00 | 47 | 1013.2 |
| 20260906041904 | 87 | 192 | 0.0 | 1.7 | 0.00 | 0.00 | 0.00 | 47 | 1013.2 |
| 20260906041404 | 87 | 205 | 0.9 | 1.7 | 0.00 | 0.00 | 0.00 | 46 | 1013.3 |
| 20260906040903 | 87 | 142 | 0.9 | 1.7 | 0.00 | 0.00 | 0.00 | 44 | 1013.4 |
| 20260906040404 | 87 | 176 | 1.7 | 4.3 | 0.00 | 0.00 | 0.00 | 44 | 1013.4 |
| 20260906034906 | 88 | 153 | 1.7 | 4.3 | 0.00 | 0.00 | 0.00 | 43 | 1013.1 |
| 20260906033903 | 88 | 162 | 0.9 | 5.2 | 0.00 | 0.00 | 0.00 | 44 | 1013.1 |
| 20260906031904 | 89 | 132 | 0.9 | 4.3 | 0.00 | 0.00 | 0.00 | 43 | 1013.0 |
| 20260906031404 | 89 | 145 | 0.9 | 1.7 | 0.00 | 0.00 | 0.00 | 43 | 1012.9 |
| 20260906030903 | 89 | 126 | 0.0 | 1.7 | 0.00 | 0.00 | 0.00 | 43 | 1012.9 |
| 20260906030404 | 89 | 141 | 1.7 | 6.1 | 0.00 | 0.00 | 0.00 | 43 | 1012.9 |
| 20260906024404 | 89 | 154 | 0.9 | 4.3 | 0.00 | 0.00 | 0.00 | 42 | 1012.8 |
| 20260906021904 | 90 | 152 | 0.9 | 4.3 | 0.00 | 0.00 | 0.00 | 42 | 1012.2 |
| 20260906021403 | 90 | 162 | 0.9 | 4.3 | 0.00 | 0.00 | 0.00 | 42 | 1012.2 |
| 20260906020904 | 90 | 155 | 1.7 | 4.3 | 0.00 | 0.00 | 0.00 | 41 | 1012.1 |
| 20260906014404 | 91 | 136 | 0.0 | 0.9 | 0.00 | 0.00 | 0.00 | 40 | 1012.0 |
| 20260906013904 | 91 | 132 | 0.0 | 0.9 | 0.00 | 0.00 | 0.00 | 42 | 1012.0 |
| 20260906011903 | 92 | 136 | 0.0 | 0.9 | 0.00 | 0.00 | 0.00 | 39 | 1011.7 |
| 20260906010904 | 92 | 136 | 0.0 | 0.9 | 0.00 | 0.00 | 0.00 | 37 | 1011.6 |
| 20260906010404 | 93 | 136 | 0.0 | 1.7 | 0.00 | 0.00 | 0.00 | 38 | 1011.7 |
| 20260906003903 | 94 | 135 | 1.7 | 5.2 | 0.00 | 0.00 | 0.00 | 35 | 1011.4 |
| 20260906003403 | 94 | 187 | 1.7 | 6.1 | 0.00 | 0.00 | 0.00 | 35 | 1011.3 |
| 20260906001404 | 95 | 148 | 0.9 | 1.7 | 0.00 | 0.00 | 0.00 | 35 | 1011.4 |
| 20260906000904 | 95 | 132 | 0.9 | 4.3 | 0.00 | 0.00 | 0.00 | 34 | 1011.5 |
| 20260906000403 | 96 | 145 | 0.9 | 7.0 | 0.00 | 0.00 | 0.00 | 33 | 1011.6 |
| 20260905233402 | 97 | 146 | 1.7 | 7.8 | 0.00 | 0.00 | 0.00 | 32 | 1011.5 |
| 20260905231902 | 98 | 136 | 1.7 | 5.2 | 0.00 | 0.00 | 0.00 | 31 | 1011.6 |
| 20260905231402 | 98 | 134 | 4.3 | 7.8 | 0.00 | 0.00 | 0.00 | 30 | 1011.6 |
| 20260905224402 | 99 | 77 | 4.3 | 7.8 | 0.00 | 0.00 | 0.00 | 29 | 1011.5 |
| 20260905223902 | 100 | 215 | 4.3 | 7.8 | 0.00 | 0.00 | 0.00 | 29 | 1011.5 |
| 20260905223403 | 100 | 145 | 2.6 | 8.7 | 0.00 | 0.00 | 0.00 | 29 | 1011.6 |
| 20260905221902 | 100 | 228 | 3.5 | 8.7 | 0.00 | 0.00 | 0.00 | 29 | 1011.5 |
| 20260905220902 | 100 | 122 | 2.6 | 5.2 | 0.00 | 0.00 | 0.00 | 29 | 1011.4 |
| 20260905220403 | 100 | 144 | 3.5 | 11.3 | 0.00 | 0.00 | 0.00 | 28 | 1011.4 |
| 20260905214904 | 102 | 122 | 5.2 | 11.3 | 0.00 | 0.00 | 0.00 | 28 | 1011.3 |
| 20260905214402 | 102 | 99 | 2.6 | 7.0 | 0.00 | 0.00 | 0.00 | 28 | 1011.3 |
| 20260905213903 | 102 | 64 | 4.3 | 8.7 | 0.00 | 0.00 | 0.00 | 29 | 1011.3 |
| 20260905213403 | 101 | 105 | 3.5 | 8.7 | 0.00 | 0.00 | 0.00 | 28 | 1011.4 |
| 20260905211902 | 101 | 135 | 4.3 | 8.7 | 0.00 | 0.00 | 0.00 | 28 | 1011.5 |
| 20260905211402 | 101 | 167 | 3.5 | 7.0 | 0.00 | 0.00 | 0.00 | 30 | 1011.5 |
| 20260905204902 | 100 | 82 | 1.7 | 6.1 | 0.00 | 0.00 | 0.00 | 32 | 1011.9 |
| 20260905204403 | 100 | 42 | 1.7 | 4.3 | 0.00 | 0.00 | 0.00 | 32 | 1012.0 |
| 20260905203902 | 100 | 43 | 2.6 | 6.1 | 0.00 | 0.00 | 0.00 | 31 | 1012.0 |
| 20260905203402 | 101 | 153 | 4.3 | 8.7 | 0.00 | 0.00 | 0.00 | 32 | 1012.2 |
| 20260905201902 | 102 | 101 | 2.6 | 7.0 | 0.00 | 0.00 | 0.00 | 30 | 1012.5 |
| 20260905201403 | 102 | 212 | 4.3 | 6.1 | 0.00 | 0.00 | 0.00 | 31 | 1012.5 |
| 20260905200403 | 101 | 235 | 2.6 | 5.2 | 0.00 | 0.00 | 0.00 | 31 | 1012.6 |